Time;durP1;ratioP1;P1;durP2;ratioP2;P2;SDS_P1;SDS_P2;PMS_P1;PMS_P2;Temp;Humidity;BMP_temperature;BMP_pressure;BME280_temperature;BME280_humidity;BME280_pressure;Samples;Min_cycle;Max_cycle;Signal;HPM_P1;HPM_P2
2021/06/04 00:01:27;;;;;;;27.35;22.83;;;18.60;99.90;;;;;;5128138;27;20133;-75
2021/06/04 00:03:53;;;;;;;28.48;24.00;;;18.50;99.90;;;;;;5110584;28;20024;-75
2021/06/04 00:06:19;;;;;;;27.85;22.67;;;18.50;99.90;;;;;;5110542;28;20051;-74
2021/06/04 00:08:49;;;;;;;27.85;23.02;;;18.40;99.90;;;;;;5110007;28;20020;-74
2021/06/04 00:11:22;;;;;;;28.35;22.70;;;18.40;99.90;;;;;;5111191;28;20020;-75
2021/06/04 00:13:55;;;;;;;29.13;22.98;;;18.40;99.90;;;;;;5111457;28;20376;-75
2021/06/04 00:16:23;;;;;;;;;;;18.40;99.90;;;;;;5111542;28;20081;-75
2021/06/04 00:18:50;;;;;;;24.08;20.75;;;18.30;99.90;;;;;;5127184;28;19943;-75
2021/06/04 00:21:22;;;;;;;27.33;22.80;;;18.30;99.90;;;;;;5110099;28;20081;-75
2021/06/04 00:23:48;;;;;;;31.88;22.70;;;18.30;99.90;;;;;;5111543;28;20181;-75
2021/06/04 00:26:15;;;;;;;28.98;22.42;;;18.30;99.90;;;;;;5109909;28;20593;-75
2021/06/04 00:28:41;;;;;;;24.98;21.67;;;18.20;99.90;;;;;;5111107;28;20028;-75
2021/06/04 00:31:07;;;;;;;24.88;20.63;;;18.20;99.90;;;;;;5109926;28;20043;-75
2021/06/04 00:33:34;;;;;;;30.48;21.95;;;18.20;99.90;;;;;;5111305;28;20023;-75
2021/06/04 00:36:01;;;;;;;29.80;22.77;;;18.10;99.90;;;;;;5110995;28;20069;-75
2021/06/04 00:38:26;;;;;;;24.35;21.35;;;18.00;99.90;;;;;;5111215;28;20099;-75
2021/06/04 00:40:55;;;;;;;26.13;21.58;;;17.90;99.90;;;;;;5110541;28;20123;-75
2021/06/04 00:43:23;;;;;;;25.52;20.42;;;17.80;99.90;;;;;;5111108;28;20095;-75
2021/06/04 00:45:52;;;;;;;26.58;22.92;;;17.80;99.90;;;;;;5110505;28;20024;-75
2021/06/04 00:48:19;;;;;;;28.33;22.55;;;17.80;99.90;;;;;;5109575;28;20396;-75
2021/06/04 00:50:51;;;;;;;28.35;21.33;;;17.70;99.90;;;;;;5109566;28;20431;-75
2021/06/04 00:53:20;;;;;;;23.20;20.25;;;17.70;99.90;;;;;;5110974;28;20028;-75
2021/06/04 00:55:45;;;;;;;27.17;20.45;;;17.70;99.90;;;;;;5110628;28;20030;-74
2021/06/04 00:58:16;;;;;;;30.20;20.92;;;17.70;99.90;;;;;;5110871;28;20032;-74
2021/06/04 01:00:50;;;;;;;25.70;22.52;;;17.60;99.90;;;;;;5108983;28;20039;-74
2021/06/04 01:03:17;;;;;;;23.95;20.40;;;17.70;99.90;;;;;;5110787;28;20020;-75
2021/06/04 01:05:44;;;;;;;23.92;20.70;;;17.70;99.90;;;;;;5110389;28;20076;-75
2021/06/04 01:08:35;;;;;;;23.65;19.80;;;17.60;99.90;;;;;;5110354;28;20016;-75
2021/06/04 01:11:13;;;;;;;27.50;22.60;;;17.60;99.90;;;;;;5105517;28;20403;-75
2021/06/04 01:14:08;;;;;;;27.48;21.80;;;17.60;99.90;;;;;;5096935;28;20085;-74
2021/06/04 01:16:58;;;;;;;26.80;22.85;;;17.60;99.90;;;;;;5096325;28;20047;-74
2021/06/04 01:19:37;;;;;;;24.58;21.27;;;17.70;99.90;;;;;;5096284;28;20146;-74
2021/06/04 01:22:07;;;;;;;24.05;20.50;;;17.60;99.90;;;;;;5096839;28;20373;-74
2021/06/04 01:25:07;;;;;;;24.27;21.17;;;17.50;99.90;;;;;;5096530;28;20072;-74
2021/06/04 01:27:37;;;;;;;28.40;24.70;;;17.40;99.90;;;;;;5096014;28;20020;-74
2021/06/04 01:33:03;;;;;;;34.05;25.52;;;17.40;99.90;;;;;;5128184;27;20144;-75
2021/06/04 01:35:38;;;;;;;29.67;23.73;;;17.40;99.90;;;;;;5111608;28;20028;-73
2021/06/04 01:38:04;;;;;;;29.08;23.48;;;17.40;99.90;;;;;;5111850;28;20020;-75
2021/06/04 01:40:35;;;;;;;28.38;22.65;;;17.40;99.90;;;;;;5111516;28;20480;-73
2021/06/04 01:43:13;;;;;;;27.38;22.85;;;17.30;99.90;;;;;;5110214;28;20024;-73
2021/06/04 01:45:43;;;;;;;28.95;23.55;;;17.30;99.90;;;;;;5111704;28;20457;-73
2021/06/04 01:48:16;;;;;;;26.25;21.88;;;17.40;99.90;;;;;;5111669;28;20020;-75
2021/06/04 01:50:49;;;;;;;31.20;22.48;;;17.30;99.90;;;;;;5111270;28;20047;-75
2021/06/04 01:53:21;;;;;;;27.88;22.70;;;17.30;99.90;;;;;;5110135;28;20424;-73
2021/06/04 01:55:53;;;;;;;25.30;22.25;;;17.30;99.90;;;;;;5111545;28;20028;-74
2021/06/04 01:58:35;;;;;;;24.58;21.42;;;17.40;99.90;;;;;;5111449;28;20099;-74
2021/06/04 02:01:14;;;;;;;28.88;22.42;;;17.40;99.90;;;;;;5111435;28;20055;-74
2021/06/04 02:03:40;;;;;;;28.83;23.05;;;17.30;99.90;;;;;;5111344;28;20069;-74
2021/06/04 02:06:07;;;;;;;29.15;23.42;;;17.30;99.90;;;;;;5110781;28;20070;-74
2021/06/04 02:08:38;;;;;;;42.38;31.35;;;17.40;99.90;;;;;;5111248;28;20038;-74
2021/06/04 02:11:06;;;;;;;60.00;41.17;;;17.50;99.90;;;;;;5110868;28;20034;-74
2021/06/04 02:13:31;;;;;;;72.15;49.35;;;17.50;99.90;;;;;;5111162;28;20449;-74
2021/06/04 02:16:13;;;;;;;74.93;47.85;;;17.50;99.90;;;;;;5111138;28;20035;-74
2021/06/04 02:18:49;;;;;;;70.30;46.42;;;17.50;99.90;;;;;;5111080;28;20050;-75
2021/06/04 02:21:21;;;;;;;69.13;46.42;;;17.50;99.90;;;;;;5109178;28;20491;-75
2021/06/04 02:23:58;;;;;;;66.18;45.63;;;17.50;99.90;;;;;;5110710;28;20461;-75
2021/06/04 02:26:32;;;;;;;57.25;43.05;;;17.50;99.90;;;;;;5110895;28;20024;-74
2021/06/04 02:29:01;;;;;;;;;;;17.50;99.90;;;;;;5110761;28;20023;-75
2021/06/04 02:31:49;;;;;;;64.28;44.30;;;17.50;99.90;;;;;;5110208;28;19916;-75
2021/06/04 02:37:22;;;;;;;61.88;44.45;;;17.50;99.90;;;;;;5128114;27;20140;-75
2021/06/04 02:39:57;;;;;;;54.65;41.83;;;17.40;99.90;;;;;;5111838;28;20024;-75
2021/06/04 02:42:29;;;;;;;60.28;43.50;;;17.40;99.90;;;;;;5111796;28;20023;-75
2021/06/04 02:45:00;;;;;;;62.80;43.92;;;17.40;99.90;;;;;;5111773;28;20032;-75
2021/06/04 02:47:32;;;;;;;61.78;44.53;;;17.40;99.90;;;;;;5110287;28;20393;-75
2021/06/04 02:50:03;;;;;;;60.55;42.33;;;17.40;99.90;;;;;;5110208;28;20024;-75
2021/06/04 02:52:37;;;;;;;67.00;44.35;;;17.40;99.90;;;;;;5111646;28;20111;-75
2021/06/04 02:55:10;;;;;;;75.35;46.47;;;17.40;99.90;;;;;;5111497;28;20509;-75
2021/06/04 02:57:37;;;;;;;70.40;47.17;;;17.40;99.90;;;;;;5110162;28;20027;-74
2021/06/04 03:00:10;;;;;;;100.03;51.53;;;17.40;99.90;;;;;;5111438;28;20028;-75
2021/06/04 03:02:36;;;;;;;87.05;46.83;;;17.40;99.90;;;;;;5109639;28;20046;-74
2021/06/04 03:05:13;;;;;;;89.68;51.65;;;17.40;99.90;;;;;;5110810;28;20031;-74
2021/06/04 03:07:41;;;;;;;92.30;52.30;;;17.40;99.90;;;;;;5111378;28;20373;-74
2021/06/04 03:10:14;;;;;;;91.72;52.92;;;17.40;99.90;;;;;;5111298;28;20023;-74
2021/06/04 03:12:43;;;;;;;84.20;49.88;;;17.40;99.90;;;;;;5110451;28;20035;-74
2021/06/04 03:15:29;;;;;;;79.28;48.25;;;17.50;99.90;;;;;;5110840;28;20020;-74
2021/06/04 03:17:55;;;;;;;85.82;50.08;;;17.40;99.90;;;;;;5110894;28;20012;-74
2021/06/04 03:20:28;;;;;;;91.25;51.30;;;17.40;99.90;;;;;;5111110;28;20106;-74
2021/06/04 03:22:53;;;;;;;84.72;49.95;;;17.40;99.90;;;;;;5110803;28;20020;-75
2021/06/04 03:25:25;;;;;;;106.03;53.95;;;17.40;99.90;;;;;;5110992;28;20412;-74
2021/06/04 03:27:52;;;;;;;77.53;48.42;;;17.40;99.90;;;;;;5110950;28;20057;-75
2021/06/04 03:30:22;;;;;;;80.47;50.70;;;17.40;99.90;;;;;;5110929;28;20097;-75
2021/06/04 03:32:48;;;;;;;84.78;53.45;;;17.40;99.90;;;;;;5110905;28;20058;-74
2021/06/04 03:35:14;;;;;;;85.93;52.97;;;17.50;99.90;;;;;;5110224;28;20067;-74
2021/06/04 03:37:41;;;;;;;81.13;51.75;;;17.50;99.90;;;;;;5109040;28;20107;-75
2021/06/04 03:40:11;;;;;;;82.70;49.13;;;17.50;99.90;;;;;;5110746;28;20058;-74
2021/06/04 03:42:36;;;;;;;78.97;46.42;;;17.50;99.90;;;;;;5110421;28;20104;-74
2021/06/04 03:45:05;;;;;;;73.82;47.67;;;17.40;99.90;;;;;;5110365;28;20048;-75
2021/06/04 03:47:31;;;;;;;74.30;47.22;;;17.50;99.90;;;;;;5100517;28;20431;-74
2021/06/04 03:49:57;;;;;;;79.40;49.72;;;17.50;99.90;;;;;;5096711;28;20103;-74
2021/06/04 03:52:24;;;;;;;75.75;49.22;;;17.60;99.90;;;;;;5096955;28;20024;-75
2021/06/04 03:54:52;;;;;;;67.03;46.05;;;17.60;99.90;;;;;;5095344;28;20028;-75
2021/06/04 03:57:23;;;;;;;68.35;43.55;;;17.70;99.90;;;;;;5096819;28;20016;-75
2021/06/04 03:59:48;;;;;;;57.25;41.28;;;17.70;99.90;;;;;;5094954;28;20085;-74
2021/06/04 04:02:17;;;;;;;58.05;42.42;;;17.70;99.90;;;;;;5095261;28;20546;-75
2021/06/04 04:04:43;;;;;;;57.55;41.65;;;17.70;99.90;;;;;;5096662;28;20027;-75
2021/06/04 04:07:09;;;;;;;73.05;48.72;;;17.70;99.90;;;;;;5096384;28;20025;-74
2021/06/04 04:09:35;;;;;;;87.07;51.15;;;17.70;99.90;;;;;;5096596;28;20473;-74
2021/06/04 04:12:02;;;;;;;84.18;51.30;;;17.80;99.90;;;;;;5095077;28;20032;-74
2021/06/04 04:14:28;;;;;;;72.32;48.60;;;17.80;99.90;;;;;;5096525;28;20043;-74
2021/06/04 04:16:54;;;;;;;71.85;48.42;;;17.80;99.90;;;;;;5094574;28;20066;-75
2021/06/04 04:19:22;;;;;;;69.80;47.08;;;17.90;99.90;;;;;;5096415;28;20044;-75
2021/06/04 04:21:50;;;;;;;68.25;45.58;;;17.80;99.90;;;;;;5096380;28;20462;-75
2021/06/04 04:24:22;;;;;;;60.90;43.58;;;17.90;99.90;;;;;;5096313;28;20016;-74
2021/06/04 04:26:48;;;;;;;58.15;42.83;;;17.90;99.90;;;;;;5096301;28;20107;-75
2021/06/04 04:29:14;;;;;;;65.05;44.55;;;17.90;99.90;;;;;;5095930;28;20512;-75
2021/06/04 04:31:45;;;;;;;62.63;43.22;;;17.90;99.90;;;;;;5096150;28;20111;-75
2021/06/04 04:34:11;;;;;;;59.83;42.83;;;17.90;99.90;;;;;;5094881;28;20107;-75
2021/06/04 04:36:42;;;;;;;58.42;41.42;;;18.00;99.90;;;;;;5095339;28;20044;-75
2021/06/04 04:39:11;;;;;;;57.55;43.13;;;18.10;99.90;;;;;;5094940;28;20381;-75
2021/06/04 04:41:37;;;;;;;54.13;40.00;;;18.30;99.90;;;;;;5095930;28;20477;-75
2021/06/04 04:44:04;;;;;;;56.63;40.03;;;18.40;99.90;;;;;;5095910;28;20020;-75
2021/06/04 04:46:29;;;;;;;51.53;39.20;;;18.40;99.90;;;;;;5095874;28;20028;-75
2021/06/04 04:48:56;;;;;;;49.42;38.58;;;18.40;99.90;;;;;;5095797;28;20377;-75
2021/06/04 04:51:23;;;;;;;51.67;40.03;;;18.40;99.90;;;;;;5094414;28;20477;-75
2021/06/04 04:53:50;;;;;;;54.67;40.38;;;18.40;99.90;;;;;;5095461;28;20514;-75
2021/06/04 04:56:16;;;;;;;55.63;40.65;;;18.40;99.90;;;;;;5095612;28;20480;-75
2021/06/04 04:58:41;;;;;;;53.45;39.97;;;18.50;99.90;;;;;;5094611;28;20024;-74
2021/06/04 05:01:09;;;;;;;55.10;39.53;;;18.50;99.90;;;;;;5094459;28;20099;-75
2021/06/04 05:03:34;;;;;;;49.42;38.47;;;18.60;99.90;;;;;;5095555;28;20024;-75
2021/06/04 05:06:01;;;;;;;50.60;38.45;;;18.70;99.90;;;;;;5095514;28;20035;-75
2021/06/04 05:08:26;;;;;;;53.13;39.42;;;18.70;99.90;;;;;;5095460;28;20486;-75
2021/06/04 05:10:53;;;;;;;49.60;38.42;;;18.70;99.90;;;;;;5095388;28;20033;-75
2021/06/04 05:13:19;;;;;;;50.67;38.10;;;18.80;99.90;;;;;;5095096;28;20081;-74
2021/06/04 05:15:45;;;;;;;51.30;38.53;;;18.80;99.90;;;;;;5094928;28;20024;-75
2021/06/04 05:18:13;;;;;;;47.35;38.13;;;18.80;99.90;;;;;;5095257;28;20028;-75
2021/06/04 05:20:41;;;;;;;47.97;37.20;;;18.80;99.90;;;;;;5095212;28;20016;-75
2021/06/04 05:23:07;;;;;;;49.47;38.65;;;18.90;99.90;;;;;;5094639;28;20020;-75
2021/06/04 05:25:39;;;;;;;50.03;39.65;;;19.00;99.90;;;;;;5094843;28;20024;-75
2021/06/04 05:28:07;;;;;;;52.80;39.40;;;19.00;99.90;;;;;;5094827;28;20031;-75
2021/06/04 05:30:36;;;;;;;52.67;41.15;;;19.10;99.90;;;;;;5094738;28;20461;-75
2021/06/04 05:33:03;;;;;;;52.85;39.40;;;19.10;99.90;;;;;;5094986;28;20035;-75
2021/06/04 05:35:29;;;;;;;55.30;39.55;;;19.20;99.90;;;;;;5094482;28;20044;-75
2021/06/04 05:37:56;;;;;;;51.88;39.47;;;19.30;99.90;;;;;;5093054;28;20149;-75
2021/06/04 05:40:26;;;;;;;46.13;36.72;;;19.30;99.90;;;;;;5094709;28;20418;-75
2021/06/04 05:42:52;;;;;;;49.00;39.60;;;19.30;99.90;;;;;;5094730;28;20024;-75
2021/06/04 05:45:21;;;;;;;49.30;39.10;;;19.40;99.90;;;;;;5093171;28;20028;-75
2021/06/04 05:47:47;;;;;;;52.92;39.22;;;19.40;99.90;;;;;;5093462;28;20024;-75
2021/06/04 05:50:17;;;;;;;50.42;39.90;;;19.50;99.90;;;;;;5093203;28;20050;-75
2021/06/04 05:52:44;;;;;;;51.72;38.65;;;19.60;99.90;;;;;;5094296;28;20433;-75
2021/06/04 05:55:13;;;;;;;48.78;38.08;;;19.70;99.90;;;;;;5094254;28;20032;-75
2021/06/04 05:57:39;;;;;;;47.58;37.17;;;19.80;99.90;;;;;;5094523;28;20104;-75
2021/06/04 06:00:11;;;;;;;45.65;37.58;;;19.90;99.90;;;;;;5093886;28;20047;-75
2021/06/04 06:02:37;;;;;;;47.67;35.67;;;20.00;99.90;;;;;;5077198;28;20028;-75
2021/06/04 06:05:03;;;;;;;48.47;36.45;;;20.00;99.90;;;;;;5093234;28;20028;-75
2021/06/04 06:07:28;;;;;;;43.15;34.88;;;20.30;99.90;;;;;;5092849;28;20411;-74
2021/06/04 06:09:54;;;;;;;40.85;33.17;;;20.60;99.90;;;;;;5092486;28;20052;-75
2021/06/04 06:12:19;;;;;;;35.70;31.05;;;21.30;99.90;;;;;;5093894;28;20084;-74
2021/06/04 06:14:45;;;;;;;36.75;30.08;;;22.20;99.90;;;;;;5094042;28;20028;-74
2021/06/04 06:17:12;;;;;;;32.95;29.33;;;22.70;99.90;;;;;;5093883;28;20024;-74
2021/06/04 06:19:38;;;;;;;32.53;28.95;;;22.90;99.90;;;;;;5094081;28;20019;-74
2021/06/04 06:22:03;;;;;;;33.03;29.30;;;22.90;99.90;;;;;;5093777;28;20028;-74
2021/06/04 06:24:29;;;;;;;31.30;27.83;;;22.80;99.90;;;;;;5094104;28;20465;-74
2021/06/04 06:26:57;;;;;;;31.55;27.13;;;23.10;99.90;;;;;;5091994;28;20036;-74
2021/06/04 06:29:23;;;;;;;31.50;28.15;;;23.50;99.90;;;;;;5093906;28;20109;-74
2021/06/04 06:31:48;;;;;;;38.70;29.92;;;23.80;99.90;;;;;;5094011;28;20055;-74
2021/06/04 06:34:15;;;;;;;33.25;29.52;;;24.00;99.90;;;;;;5093949;28;20027;-74
2021/06/04 06:36:42;;;;;;;32.05;28.58;;;23.60;99.90;;;;;;5093160;28;20111;-74
2021/06/04 06:39:17;;;;;;;31.70;28.30;;;23.50;99.90;;;;;;5092449;28;20024;-75
2021/06/04 06:41:45;;;;;;;32.17;28.77;;;23.90;99.90;;;;;;5093972;28;20024;-74
2021/06/04 06:44:11;;;;;;;32.75;29.25;;;24.10;99.90;;;;;;5093915;28;20024;-74
2021/06/04 06:46:38;;;;;;;31.75;28.45;;;24.10;99.90;;;;;;5092737;28;20093;-74
2021/06/04 06:49:05;;;;;;;34.30;29.48;;;24.10;99.90;;;;;;5092211;28;20032;-75
2021/06/04 06:51:33;;;;;;;33.08;29.65;;;24.20;99.90;;;;;;5093592;28;20063;-75
2021/06/04 06:53:59;;;;;;;31.05;27.73;;;24.00;99.90;;;;;;5092333;28;20020;-74
2021/06/04 06:56:26;;;;;;;32.00;28.70;;;24.20;99.90;;;;;;5093057;28;20414;-74
2021/06/04 06:58:52;;;;;;;30.67;27.48;;;24.80;99.90;;;;;;5092287;28;20088;-75
2021/06/04 07:01:18;;;;;;;32.05;28.65;;;25.70;99.90;;;;;;5092292;28;20024;-75
2021/06/04 07:03:44;;;;;;;31.63;28.23;;;25.80;99.90;;;;;;5093136;28;20024;-75
2021/06/04 07:06:16;;;;;;;30.13;27.05;;;26.00;99.90;;;;;;5075168;28;20504;-75
2021/06/04 07:08:42;;;;;;;32.22;28.90;;;26.00;99.90;;;;;;5092560;28;20418;-75
2021/06/04 07:11:08;;;;;;;33.10;29.70;;;25.30;99.90;;;;;;5093293;28;20028;-75
2021/06/04 07:13:34;;;;;;;34.63;31.10;;;24.60;99.90;;;;;;5093077;28;20051;-75
2021/06/04 07:16:04;;;;;;;36.72;32.58;;;24.10;99.90;;;;;;5092173;28;20108;-75
2021/06/04 07:18:30;;;;;;;37.13;33.13;;;24.10;99.90;;;;;;5093462;28;20103;-75
2021/06/04 07:20:56;;;;;;;36.55;32.75;;;24.10;99.90;;;;;;5093489;28;20433;-75
2021/06/04 07:23:30;;;;;;;36.70;32.75;;;24.40;99.90;;;;;;5094818;28;20019;-75
2021/06/04 07:25:57;;;;;;;39.30;34.40;;;24.40;99.90;;;;;;5097333;28;20031;-75
2021/06/04 07:28:31;;;;;;;38.97;33.05;;;24.50;99.90;;;;;;5097352;28;20099;-75
2021/06/04 07:30:58;;;;;;;39.45;35.13;;;24.30;99.90;;;;;;5097261;28;20430;-75
2021/06/04 07:33:32;;;;;;;39.05;34.45;;;23.90;99.90;;;;;;5097196;28;20027;-75
2021/06/04 07:36:01;;;;;;;39.83;35.63;;;23.70;99.90;;;;;;5096442;28;20089;-75
2021/06/04 07:38:27;;;;;;;40.50;35.92;;;23.80;99.90;;;;;;5095159;28;20384;-75
2021/06/04 07:40:53;;;;;;;39.55;34.55;;;23.80;99.90;;;;;;5097026;28;20016;-75
2021/06/04 07:43:23;;;;;;;40.20;35.88;;;24.20;99.90;;;;;;5096707;28;20020;-75
2021/06/04 07:45:50;;;;;;;38.67;34.58;;;24.80;99.90;;;;;;5095658;28;20381;-75
2021/06/04 07:48:18;;;;;;;38.53;34.53;;;25.30;99.90;;;;;;5096871;28;20036;-75
2021/06/04 07:50:44;;;;;;;38.85;34.75;;;25.50;99.90;;;;;;5096586;28;20063;-76
2021/06/04 07:53:19;;;;;;;38.22;34.22;;;25.10;99.90;;;;;;5095357;28;20023;-75
2021/06/04 07:55:47;;;;;;;36.53;32.85;;;25.70;99.90;;;;;;5096672;28;20063;-76
2021/06/04 07:58:14;;;;;;;37.85;33.53;;;26.50;99.90;;;;;;5095036;28;20020;-75
2021/06/04 08:00:40;;;;;;;39.42;34.88;;;26.10;99.90;;;;;;5096500;28;20095;-75
2021/06/04 08:03:08;;;;;;;39.88;35.58;;;25.30;99.90;;;;;;5096656;28;20116;-75
2021/06/04 08:05:35;;;;;;;42.97;35.50;;;25.30;99.90;;;;;;5096114;28;20016;-75
2021/06/04 08:08:03;;;;;;;38.38;34.20;;;25.50;99.90;;;;;;5096562;28;20024;-76
2021/06/04 08:10:31;;;;;;;38.03;34.03;;;26.00;99.90;;;;;;5095374;28;20098;-75
2021/06/04 08:12:57;;;;;;;37.97;33.38;;;26.30;99.90;;;;;;5094796;28;20028;-75
2021/06/04 08:15:28;;;;;;;38.20;34.22;;;26.40;99.90;;;;;;5096368;28;20048;-76
2021/06/04 08:17:54;;;;;;;40.03;35.72;;;26.30;99.90;;;;;;5096349;28;20020;-75
2021/06/04 08:20:25;;;;;;;41.80;37.33;;;25.80;99.90;;;;;;5096106;28;20172;-75
2021/06/04 08:22:55;;;;;;;42.55;38.08;;;25.10;99.90;;;;;;5094537;28;20100;-75
2021/06/04 08:25:25;;;;;;;42.60;37.17;;;24.90;99.90;;;;;;5096300;28;20095;-75
2021/06/04 08:27:50;;;;;;;41.08;36.10;;;24.90;99.90;;;;;;5078455;28;20032;-76
2021/06/04 08:30:16;;;;;;;42.50;37.95;;;25.10;99.90;;;;;;5095905;28;20024;-76
2021/06/04 08:32:42;;;;;;;43.28;38.33;;;24.90;99.90;;;;;;5095914;28;20452;-75
2021/06/04 08:35:09;;;;;;;45.65;40.75;;;24.70;99.90;;;;;;5095436;28;20044;-76
2021/06/04 08:37:36;;;;;;;45.63;39.97;;;24.70;99.90;;;;;;5095741;28;20115;-75
2021/06/04 08:40:05;;;;;;;44.42;39.58;;;25.00;99.90;;;;;;5095444;28;20016;-75
2021/06/04 08:42:46;;;;;;;45.50;38.85;;;24.90;99.90;;;;;;5094879;28;20059;-76
2021/06/04 08:45:32;;;;;;;46.55;41.50;;;25.30;99.90;;;;;;5095959;28;20024;-75
2021/06/04 08:48:15;;;;;;;45.47;40.63;;;25.30;99.90;;;;;;5094498;28;20535;-75
2021/06/04 08:51:06;;;;;;;44.90;39.80;;;25.00;99.90;;;;;;5094445;28;20111;-75
2021/06/04 08:53:47;;;;;;;46.08;40.72;;;25.30;99.90;;;;;;5095646;28;20115;-76
2021/06/04 08:56:19;;;;;;;48.78;41.53;;;24.90;99.90;;;;;;5095653;28;20028;-75
2021/06/04 08:58:57;;;;;;;45.50;40.57;;;25.10;99.90;;;;;;5095655;28;20027;-75
2021/06/04 09:01:30;;;;;;;45.65;40.67;;;25.10;99.90;;;;;;5094500;28;20452;-75
2021/06/04 09:04:02;;;;;;;44.58;39.75;;;25.00;99.90;;;;;;5095541;28;20024;-75
2021/06/04 09:06:35;;;;;;;45.60;40.65;;;25.30;99.90;;;;;;5095531;28;20031;-75
2021/06/04 09:09:14;;;;;;;45.22;39.97;;;25.60;99.90;;;;;;5095498;28;20454;-76
2021/06/04 09:11:39;;;;;;;44.97;40.15;;;26.00;99.90;;;;;;5077938;28;20443;-74
2021/06/04 09:14:07;;;;;;;47.80;40.90;;;26.20;99.90;;;;;;5095388;28;20024;-75
2021/06/04 09:16:59;;;;;;;48.63;41.47;;;25.80;99.90;;;;;;5094992;28;20444;-74
2021/06/04 09:19:32;;;;;;;44.13;39.55;;;25.20;99.90;;;;;;5094754;28;20028;-75
2021/06/04 09:21:58;;;;;;;44.83;40.15;;;25.00;99.90;;;;;;5094980;28;20104;-75
2021/06/04 09:24:31;;;;;;;46.80;40.58;;;25.00;99.90;;;;;;5095103;28;20099;-76
2021/06/04 09:26:58;;;;;;;45.33;40.53;;;25.10;99.90;;;;;;5076956;28;20396;-76
2021/06/04 09:29:28;;;;;;;47.80;39.35;;;25.00;99.90;;;;;;5093322;28;20028;-75
2021/06/04 09:31:57;;;;;;;45.40;39.15;;;25.20;99.90;;;;;;5094353;28;20370;-76
2021/06/04 09:37:09;;;;;;;45.22;40.45;;;25.30;99.90;;;;;;5145117;27;20023;-74
2021/06/04 09:39:47;;;;;;;44.22;39.40;;;25.20;99.90;;;;;;5110303;28;20181;-74
2021/06/04 09:42:19;;;;;;;44.47;38.10;;;25.40;99.90;;;;;;5111787;28;20039;-76
2021/06/04 09:44:54;;;;;;;42.55;37.97;;;25.60;99.90;;;;;;5109887;28;20474;-74
2021/06/04 09:47:40;;;;;;;44.08;39.22;;;26.00;99.90;;;;;;5109937;28;20407;-74
2021/06/04 09:50:32;;;;;;;43.80;38.90;;;26.00;99.90;;;;;;5111210;28;20016;-74
2021/06/04 09:53:10;;;;;;;42.35;38.05;;;26.20;99.90;;;;;;5110130;28;20020;-73
2021/06/04 09:55:48;;;;;;;41.92;37.47;;;26.00;99.90;;;;;;5092822;28;20496;-75
2021/06/04 09:58:32;;;;;;;42.17;37.20;;;26.20;99.90;;;;;;5110956;28;20016;-74
2021/06/04 10:09:01;;;;;;;42.58;37.08;;;26.10;99.90;;;;;;5128053;27;20133;-73
2021/06/04 10:11:47;;;;;;;45.63;39.28;;;25.70;99.90;;;;;;5110483;28;20032;-74
2021/06/04 10:14:26;;;;;;;44.50;37.30;;;25.50;99.90;;;;;;5110471;28;20024;-74
2021/06/04 10:17:26;;;;;;;44.42;38.25;;;25.50;99.90;;;;;;5110036;28;20472;-74
2021/06/04 10:19:51;;;;;;;48.95;40.47;;;25.50;99.90;;;;;;5110459;28;20030;-73
2021/06/04 10:22:41;;;;;;;47.38;39.92;;;25.40;99.90;;;;;;5111681;28;20028;-75
2021/06/04 10:25:12;;;;;;;46.30;39.30;;;25.00;99.90;;;;;;5092875;28;20027;-74
2021/06/04 10:27:44;;;;;;;43.30;36.15;;;25.00;99.90;;;;;;5110812;28;20043;-74
2021/06/04 10:33:49;;;;;;;39.95;33.88;;;25.90;99.90;;;;;;5128439;27;20135;-75
2021/06/04 10:36:18;;;;;;;41.00;32.58;;;26.00;99.90;;;;;;5111592;28;20472;-74
2021/06/04 10:38:53;;;;;;;37.70;33.70;;;26.00;99.90;;;;;;5110688;28;20016;-75
2021/06/04 10:41:31;;;;;;;37.20;32.53;;;26.00;99.90;;;;;;5110268;28;20492;-74
2021/06/04 10:44:37;;;;;;;35.70;31.88;;;26.10;99.90;;;;;;5111622;28;20458;-74
2021/06/04 10:47:16;;;;;;;36.92;30.65;;;26.60;99.90;;;;;;5111142;28;20052;-74
2021/06/04 10:50:05;;;;;;;33.28;28.27;;;26.50;99.90;;;;;;5109849;28;20024;-74
2021/06/04 10:52:59;;;;;;;32.47;28.95;;;26.70;99.90;;;;;;5109694;28;20024;-74
2021/06/04 10:55:30;;;;;;;33.05;29.02;;;26.80;99.90;;;;;;5127393;28;20095;-74
2021/06/04 10:58:12;;;;;;;35.92;29.27;;;27.10;99.90;;;;;;5110089;28;20085;-73
2021/06/04 11:00:52;;;;;;;30.08;25.88;;;27.80;99.90;;;;;;5110088;28;20085;-74
2021/06/04 11:03:25;;;;;;;31.90;28.45;;;28.60;99.90;;;;;;5111404;28;20024;-74
2021/06/04 11:06:15;;;;;;;33.35;28.45;;;28.90;99.90;;;;;;5094093;28;20028;-74
2021/06/04 11:08:50;;;;;;;28.25;25.13;;;28.70;99.90;;;;;;5109665;28;20421;-74
2021/06/04 11:11:45;;;;;;;28.08;23.80;;;28.90;99.90;;;;;;5111097;28;20472;-74
2021/06/04 11:14:38;;;;;;;26.77;20.55;;;28.50;99.90;;;;;;5109268;28;20028;-74
2021/06/04 11:17:40;;;;;;;22.02;18.17;;;28.80;99.90;;;;;;5109639;28;20028;-75
2021/06/04 11:20:11;;;;;;;16.55;13.73;;;28.40;99.90;;;;;;5109778;28;20385;-75
2021/06/04 11:23:07;;;;;;;18.40;14.02;;;28.40;99.90;;;;;;5109265;28;20099;-75
2021/06/04 11:25:50;;;;;;;9.27;8.23;;;28.00;99.90;;;;;;5110311;28;20032;-74
2021/06/04 11:28:38;;;;;;;16.90;14.57;;;28.10;99.60;;;;;;5110657;28;20024;-75
2021/06/04 11:31:08;;;;;;;21.00;17.92;;;28.40;99.90;;;;;;5111728;28;20085;-75
2021/06/04 11:33:36;;;;;;;19.30;16.13;;;28.80;99.90;;;;;;5092515;28;20016;-75
2021/06/04 11:36:25;;;;;;;20.90;18.70;;;28.70;99.90;;;;;;5110494;28;20015;-74
2021/06/04 11:38:54;;;;;;;24.23;21.23;;;28.50;99.90;;;;;;5126301;28;20016;-74
2021/06/04 11:41:29;;;;;;;26.35;21.33;;;28.40;99.90;;;;;;5091874;28;20477;-74
2021/06/04 11:44:05;;;;;;;23.55;19.80;;;28.30;99.90;;;;;;5099506;28;20041;-75
2021/06/04 11:46:33;;;;;;;21.55;16.88;;;28.60;99.90;;;;;;5096520;28;20020;-75
2021/06/04 11:49:07;;;;;;;21.00;16.70;;;28.70;99.90;;;;;;5095080;28;20065;-75
2021/06/04 11:51:39;;;;;;;19.05;16.52;;;28.90;99.90;;;;;;5095720;28;20024;-75
2021/06/04 11:54:31;;;;;;;19.77;14.88;;;28.80;99.90;;;;;;5096672;28;20373;-75
2021/06/04 11:57:00;;;;;;;13.75;12.18;;;29.00;99.90;;;;;;5112100;28;20028;-75
2021/06/04 11:59:51;;;;;;;14.80;13.27;;;29.20;99.90;;;;;;5077916;28;20103;-75
2021/06/04 12:02:45;;;;;;;16.17;11.48;;;29.40;99.90;;;;;;5096221;28;20381;-75
2021/06/04 12:05:23;;;;;;;16.05;13.48;;;29.40;99.90;;;;;;5096133;28;20020;-75
2021/06/04 12:08:17;;;;;;;18.45;12.55;;;28.80;99.90;;;;;;5096328;28;20031;-76
2021/06/04 12:13:45;;;;;;;17.55;13.65;;;29.10;99.90;;;;;;5128006;27;20128;-75
2021/06/04 12:16:30;;;;;;;14.18;10.98;;;28.50;99.90;;;;;;5110821;28;20024;-75
2021/06/04 12:19:23;;;;;;;17.10;13.02;;;28.50;99.90;;;;;;5110046;28;20051;-75
2021/06/04 12:21:53;;;;;;;15.18;13.10;;;28.60;99.90;;;;;;5109883;28;20051;-75
2021/06/04 12:24:33;;;;;;;14.38;11.80;;;28.80;99.90;;;;;;5111394;28;20044;-75
2021/06/04 12:29:52;;;;;;;17.20;12.05;;;28.80;99.90;;;;;;5128416;27;20133;-74
2021/06/04 12:35:03;;;;;;;16.65;13.18;;;28.20;99.90;;;;;;5128269;27;20129;-75
2021/06/04 12:37:37;;;;;;;14.00;12.55;;;28.00;99.90;;;;;;5111537;28;20042;-75
2021/06/04 12:40:25;;;;;;;15.45;11.48;;;27.80;99.90;;;;;;5111335;28;20020;-75
2021/06/04 12:43:16;;;;;;;14.40;11.57;;;27.90;99.90;;;;;;5111812;28;20051;-75
2021/06/04 12:45:54;;;;;;;14.52;11.38;;;28.30;99.90;;;;;;5112005;28;20085;-75
2021/06/04 12:48:23;;;;;;;12.95;9.82;;;27.80;99.90;;;;;;5112289;28;20461;-75
2021/06/04 12:51:18;;;;;;;15.18;11.13;;;27.80;99.90;;;;;;5112799;28;20055;-74
2021/06/04 12:53:47;;;;;;;13.43;12.02;;;27.80;99.90;;;;;;5111735;28;20030;-75
2021/06/04 12:56:21;;;;;;;9.52;8.15;;;28.20;99.90;;;;;;5110604;28;20461;-75
2021/06/04 12:59:04;;;;;;;12.55;10.82;;;28.40;99.90;;;;;;5111267;28;20480;-75
2021/06/04 13:01:37;;;;;;;11.63;10.38;;;28.10;99.90;;;;;;5111383;28;20016;-75
2021/06/04 13:04:24;;;;;;;13.45;9.75;;;27.80;99.90;;;;;;5092747;28;20028;-74
2021/06/04 13:06:55;;;;;;;16.25;10.88;;;27.50;99.90;;;;;;5109840;28;20024;-75
2021/06/04 13:12:03;;;;;;;13.10;11.20;;;27.80;99.90;;;;;;5127859;27;20140;-75
2021/06/04 13:17:27;;;;;;;14.93;12.93;;;28.50;99.90;;;;;;5128052;27;20133;-75
2021/06/04 13:20:16;;;;;;;15.05;13.45;;;28.40;99.90;;;;;;5111375;28;20051;-75
2021/06/04 13:22:44;;;;;;;17.42;13.85;;;27.90;99.90;;;;;;5109955;28;20020;-75
2021/06/04 13:25:24;;;;;;;15.20;12.10;;;27.90;99.90;;;;;;5110072;28;20024;-76
2021/06/04 13:28:03;;;;;;;15.95;12.07;;;28.10;99.90;;;;;;5093703;28;20034;-76